Aviation Digital Data Service (ADDS)

Output produced by METARs form (1144 UTC 24 January 2021)
found at http://www.aviationweather.gov/metar/data/
 
LFRN 241130Z AUTO 26008KT CAVOK 06/03 Q1001 TEMPO 3000 SHRAGS BKN010 BKN015CB
TAF LFRN 241100Z 2412/2512 26010KT 9999 SCT020 
     TEMPO 2412/2418 3000 SHRAGS BKN010 BKN015CB 
     TEMPO 2414/2502 26015G30KT 
     PROB40 
     TEMPO 2418/2505 4000 SHRAGS BKN020TCU 
     BECMG 2503/2505 32012KT